Estació municipal de Aiguafreda (Osona, P.N. del Montseny)

Consulta les dades en temps real de l'estació municipal de Aiguafreda





Hora UTC 21:00
Temperatura 23.7 ºC
Sòl 15 cm 22.1 ºC
Humitat 78.2 %
Pressió 1021.3 hPa
Pluja 0.0 mm
Velocitat vent 0.0 km/h
Direcció vent NNE

Dades diàries 2026-09-04



Hora UTC (hivern +1h; estiu +2h)
Temperatura (ºC) Humitat (%) Pressió (hPa) Velocitat vent (km/h) Precipitació (mm)
Hora UTC Aire Sòl 15 cm Humitat Pressió Vel. Dir. Vel. Max Dir. Intent. màx 5 min.
00:05 20.7 19.4 86.8 1022.5 0.0 NNE 0.0 SE 0.0
00:10 20.6 19.3 87.0 1022.5 0.0 NNE 0.0 NW 0.0
00:15 20.6 19.3 87.3 1022.4 0.0 NNE 0.0 NW 0.0
00:20 20.5 19.3 87.4 1022.4 0.0 NNE 0.0 WNW 0.0
00:25 20.5 19.3 87.3 1022.3 0.0 NNE 0.0 W 0.0
00:30 20.4 19.1 87.5 1022.3 0.0 NNE 0.0 W 0.0
00:35 20.3 19.1 87.9 1022.3 0.0 NNE 0.0 W 0.0
00:40 20.3 19.0 88.0 1022.3 0.0 NNE 0.0 ENE 0.0
00:45 20.3 19.0 88.1 1022.3 0.0 NNE 0.0 N 0.0
00:50 20.2 18.9 88.0 1022.3 0.0 NNE 0.0 W 0.0
00:55 20.1 18.9 88.1 1022.2 0.0 NNE 0.0 W 0.0
01:00 20.1 18.8 88.4 1022.1 0.0 NNE 0.0 W 0.0
01:05 20.0 18.7 88.4 1022.1 0.0 NNE 0.0 W 0.0
01:10 20.0 18.6 88.5 1022.1 0.0 NNE 0.0 W 0.0
01:15 19.9 18.6 88.7 1022.0 0.0 NNE 0.0 W 0.0
01:20 19.8 18.5 88.8 1022.0 0.0 NNE 0.0 W 0.0
01:25 19.8 18.5 88.8 1021.9 0.0 NNE 0.0 W 0.0
01:30 19.8 18.5 88.9 1021.9 0.0 NNE 0.0 W 0.0
01:35 19.7 18.4 88.9 1021.9 0.0 NNE 0.0 W 0.0
01:40 19.6 18.3 89.1 1021.9 0.0 NNE 0.0 W 0.0
01:45 19.6 18.2 89.3 1021.9 0.0 NNE 0.0 W 0.0
01:50 19.5 18.2 89.4 1021.9 0.0 NNE 0.0 NE 0.0
01:55 19.5 18.1 89.6 1021.8 0.0 NNE 0.0 NE 0.0
02:00 19.5 18.1 89.7 1021.8 0.0 NNE 0.0 NE 0.0
02:05 19.4 18.0 89.7 1021.8 0.0 NNE 0.0 NNW 0.0
02:10 19.4 18.0 89.9 1021.7 0.0 NNE 0.0 WSW 0.0
02:15 19.3 17.9 89.9 1021.7 0.0 NNE 0.0 WSW 0.0
02:20 19.3 17.9 90.0 1021.7 0.0 NNE 0.0 ENE 0.0
02:25 19.2 17.8 90.1 1021.8 0.0 NNE 0.0 ENE 0.0
02:30 19.2 17.8 90.2 1021.7 0.0 NNE 0.0 ENE 0.0
02:35 19.1 17.7 90.3 1021.7 0.0 NNE 0.0 ENE 0.0
02:40 19.1 17.7 90.2 1021.7 0.0 NNE 0.0 W 0.0
02:45 19.1 17.7 90.1 1021.7 0.0 NNE 0.0 NW 0.0
02:50 19.1 17.7 90.2 1021.7 0.0 NNE 0.0 W 0.0
02:55 19.1 17.6 90.1 1021.6 0.0 NNE 0.0 NW 0.0
03:00 19.0 17.6 90.1 1021.6 0.0 NNE 0.0 NW 0.0
03:05 19.0 17.5 90.2 1021.6 0.0 NNE 0.0 NW 0.0
03:10 18.9 17.5 90.3 1021.6 0.0 NNE 0.0 NW 0.0
03:15 18.9 17.5 90.3 1021.6 0.0 NNE 0.0 NW 0.0
03:20 18.9 17.5 90.4 1021.5 0.0 NNE 0.0 WNW 0.0
03:25 18.9 17.5 90.5 1021.5 0.0 NNE 0.0 NNW 0.0
03:30 18.9 17.5 90.4 1021.4 0.0 NNE 0.0 NNW 0.0
03:35 18.8 17.4 90.4 1021.4 0.0 NNE 0.0 NNW 0.0
03:40 18.8 17.4 90.4 1021.4 0.0 NNE 0.0 WSW 0.0
03:45 18.7 17.4 90.4 1021.4 0.0 NNE 0.0 S 0.0
03:50 18.7 17.3 90.5 1021.4 0.0 NNE 0.0 S 0.0
03:55 18.7 17.3 90.6 1021.3 0.0 NNE 0.0 S 0.0
04:00 18.7 17.3 90.6 1021.2 0.0 NNE 0.0 S 0.0
04:05 18.7 17.3 90.6 1021.2 0.0 NNE 0.0 SW 0.0
04:10 18.6 17.2 90.6 1021.2 0.0 NNE 0.0 SW 0.0
04:15 18.6 17.1 90.6 1021.2 0.0 NNE 0.0 SW 0.0
04:20 18.5 17.1 90.6 1021.2 0.0 NNE 0.0 SW 0.0
04:25 18.5 17.0 90.6 1021.2 0.0 NNE 0.0 SW 0.0
04:30 18.4 17.0 90.7 1021.2 0.0 NNE 0.0 SW 0.0
04:35 18.4 16.9 90.7 1021.2 0.0 NNE 0.0 SW 0.0
04:40 18.4 16.9 90.8 1021.2 0.0 NNE 0.0 SW 0.0
04:45 18.3 16.8 90.9 1021.2 0.0 NNE 0.0 SW 0.0
04:50 18.3 16.8 90.9 1021.1 0.0 NNE 0.0 SW 0.0
04:55 18.2 16.7 91.0 1021.1 0.0 NNE 0.0 E 0.0
05:00 18.2 16.7 91.0 1021.1 0.0 NNE 0.0 E 0.0
05:05 18.2 16.7 91.0 1021.1 0.0 NNE 0.0 E 0.0
05:10 18.2 16.7 91.0 1021.0 0.0 NNE 0.0 NW 0.0
05:15 18.2 16.7 91.0 1021.0 0.0 NNE 0.0 SW 0.0
05:20 18.1 16.7 91.0 1021.0 0.0 NNE 0.0 SSW 0.0
05:25 18.1 16.7 90.9 1020.9 0.0 NNE 0.0 SE 0.0
05:30 18.1 16.7 90.9 1021.0 0.0 NNE 0.0 WNW 0.0
05:35 18.1 16.7 90.9 1020.9 0.0 NNE 0.0 WNW 0.0
05:40 18.1 16.7 90.9 1020.9 0.0 NNE 0.0 WNW 0.0
05:45 18.1 16.8 90.8 1020.9 0.0 NNE 0.0 SSW 0.0
05:50 18.2 16.8 90.7 1021.0 0.0 NNE 0.0 SSW 0.0
05:55 18.2 16.9 90.5 1021.0 0.0 NNE 0.0 SSW 0.0
06:00 18.2 17.0 90.4 1021.1 0.0 NNE 0.0 SSE 0.0
06:05 18.3 17.1 90.2 1021.1 0.0 NNE 0.0 SSE 0.0
06:10 18.3 17.3 90.0 1021.1 0.0 NNE 0.0 S 0.0
06:15 18.4 17.4 89.8 1021.1 0.0 NNE 0.0 S 0.0
06:20 18.5 17.5 89.5 1021.1 0.0 NNE 0.0 S 0.0
06:25 18.6 17.6 89.2 1021.0 0.0 NNE 0.0 SSE 0.0
06:30 18.7 17.9 88.8 1021.0 0.0 NNE 0.0 SE 0.0
06:35 18.9 18.1 88.3 1021.0 0.0 WSW 3.4 WSW 0.0
06:40 19.1 18.3 87.6 1021.0 0.0 NNE 0.0 S 0.0
06:45 19.6 18.6 87.6 1021.0 0.0 NNE 0.0 E 0.0
06:50 20.1 19.1 86.9 1020.9 4.3 NE 11.5 NE 0.0
06:55 20.6 19.7 85.1 1020.9 2.6 NE 8.8 NNE 0.0
07:00 21.0 20.1 83.3 1020.9 4.2 ENE 11.5 ENE 0.0
07:05 21.3 20.4 82.0 1020.9 2.7 NE 11.5 ENE 0.0
07:10 21.7 20.8 80.8 1020.8 5.4 NE 14.2 ENE 0.0
07:15 22.0 21.1 79.7 1020.8 2.1 ENE 8.8 N 0.0
07:20 22.3 21.3 78.5 1020.8 1.4 NE 11.5 NE 0.0
07:25 22.6 21.7 77.3 1020.8 2.3 ENE 11.5 ENE 0.0
07:30 22.9 22.0 76.0 1020.8 2.9 ENE 11.5 NNW 0.0
07:35 23.3 22.3 74.4 1020.8 5.4 ENE 14.2 ENE 0.0
07:40 23.8 22.7 72.6 1020.8 5.2 NE 11.5 NNE 0.0
07:45 24.5 23.1 69.1 1020.8 5.4 NE 14.2 NNE 0.0
07:50 25.2 23.5 66.4 1020.8 3.3 NE 16.9 NNE 0.0
07:55 25.7 23.9 64.3 1020.7 3.4 NE 11.5 NNE 0.0
08:00 26.1 24.2 62.9 1020.7 6.5 ENE 14.2 ENE 0.0
08:05 26.4 24.6 61.8 1020.7 6.7 NE 16.9 NNE 0.0
08:10 26.5 25.0 61.1 1020.7 5.3 NE 14.2 NE 0.0
08:15 26.8 26.2 59.7 1020.7 5.5 NE 14.2 NNE 0.0
08:20 27.1 27.5 59.0 1020.7 3.6 NE 14.2 NNE 0.0
08:25 27.7 28.7 57.5 1020.7 3.2 ENE 11.5 ENE 0.0
08:30 28.1 29.5 56.3 1020.7 0.4 ENE 8.8 ENE 0.0
08:35 28.4 30.3 55.1 1020.7 2.1 NNE 11.5 NNE 0.0
08:40 28.7 31.0 54.2 1020.8 0.0 NNE 0.0 NNW 0.0
08:45 29.1 31.9 53.5 1020.7 0.0 NNE 0.0 ENE 0.0
08:50 29.6 33.0 52.1 1020.7 0.8 NNE 6.1 NE 0.0
08:55 29.9 33.6 50.8 1020.8 0.7 NNW 6.1 N 0.0
09:00 30.2 34.8 50.2 1020.8 1.1 NNW 6.1 W 0.0
09:05 30.7 35.1 48.7 1020.7 0.0 NNE 0.0 E 0.0
09:10 31.0 35.5 47.7 1020.8 0.0 NNE 0.0 SSE 0.0
09:15 31.6 36.1 46.7 1020.8 0.0 NNE 0.0 W 0.0
09:20 32.1 36.7 45.2 1020.8 0.0 NNE 0.0 SE 0.0
09:25 32.3 36.8 44.2 1020.8 1.4 S 8.8 SSE 0.0
09:30 32.5 36.4 43.0 1020.6 0.6 S 6.1 S 0.0
09:35 33.1 37.3 41.6 1020.6 5.7 S 11.5 SE 0.0
09:40 32.7 36.4 41.8 1020.6 9.5 SSE 16.9 SSE 0.0
09:45 32.6 36.4 42.4 1020.6 9.8 SSE 16.9 SE 0.0
09:50 32.9 37.1 42.0 1020.3 8.8 S 16.9 SE 0.0
09:55 32.9 36.8 41.8 1020.6 11.5 SSE 19.6 S 0.0
10:00 32.8 36.8 41.8 1020.5 10.6 SSE 19.6 S 0.0
10:05 33.0 36.7 41.4 1020.5 10.2 SSE 19.6 S 0.0
10:10 33.4 37.5 40.9 1020.5 9.3 S 22.3 SSE 0.0
10:15 33.3 37.4 40.9 1020.4 9.5 SSE 19.6 SSE 0.0
10:20 33.7 37.7 40.2 1020.5 10.2 SSE 19.6 SSE 0.0
10:25 33.5 37.3 40.5 1020.3 11.0 SSE 19.6 SSE 0.0
10:30 33.8 38.1 39.8 1020.3 9.0 SSE 19.6 SSE 0.0
10:35 34.0 38.0 39.5 1020.3 9.5 SSE 22.3 SSE 0.0
10:40 34.4 38.8 38.6 1020.3 6.8 SSE 16.9 SSW 0.0
10:45 34.4 37.9 38.5 1020.2 11.8 SSE 19.6 SSE 0.0
10:50 33.9 37.3 39.1 1020.2 12.3 SSE 19.6 SSE 0.0
10:55 34.1 37.8 38.8 1020.2 11.3 S 22.3 SSE 0.0
11:00 34.4 38.4 38.3 1020.0 7.0 S 16.9 ESE 0.0
11:05 34.8 39.0 37.4 1020.1 9.8 SSE 22.3 ESE 0.0
11:10 35.0 39.4 36.5 1020.2 9.3 SSE 16.9 SE 0.0
11:15 35.3 39.8 35.8 1020.1 9.5 SE 22.3 SE 0.0
11:20 35.5 39.4 35.4 1020.0 8.0 S 19.6 SW 0.0
11:25 35.3 39.1 35.9 1020.0 9.7 S 19.6 SE 0.0
11:30 35.2 39.2 36.4 1019.9 11.4 SSE 22.3 SSE 0.0
11:35 35.4 39.5 36.1 1019.8 10.4 SSE 22.3 SE 0.0
11:40 35.4 38.9 36.0 1019.9 13.1 SE 25.0 SSE 0.0
11:45 35.2 38.7 36.1 1019.8 12.5 SE 25.0 ESE 0.0
11:50 35.2 38.5 36.0 1019.8 11.8 SSE 19.6 SSE 0.0
11:55 35.0 38.6 36.8 1019.8 11.6 SSE 22.3 S 0.0
12:00 35.1 38.9 36.1 1019.8 11.9 S 25.0 SSE 0.0
12:05 35.0 38.6 35.9 1019.9 13.7 SSE 22.3 SSW 0.0
12:10 35.3 38.8 34.5 1019.7 7.1 SSE 16.9 S 0.0
12:15 35.6 39.3 34.6 1019.6 8.0 S 14.2 SSE 0.0
12:20 35.9 39.6 34.9 1019.7 10.7 SSE 19.6 ESE 0.0
12:25 35.9 39.6 34.8 1019.6 10.1 SSE 19.6 SSE 0.0
12:30 36.1 40.0 34.1 1019.5 6.4 SSE 16.9 SE 0.0
12:35 36.6 40.1 32.3 1019.2 10.5 SE 19.6 ESE 0.0
12:40 36.3 39.5 34.5 1019.6 13.8 S 25.0 SW 0.0
12:45 36.0 39.5 35.7 1019.5 10.9 SSE 19.6 SSE 0.0
12:50 35.9 39.3 36.2 1019.4 10.5 SSE 19.6 S 0.0
12:55 35.9 39.4 37.5 1019.3 11.8 S 25.0 SSW 0.0
13:00 35.9 39.4 38.1 1019.3 11.9 SSE 22.3 SE 0.0
13:05 35.5 38.9 38.4 1019.4 13.3 SSE 22.3 SSE 0.0
13:10 35.8 39.6 37.7 1019.3 9.8 SE 16.9 S 0.0
13:15 36.3 39.8 37.4 1019.2 9.0 SSE 19.6 SE 0.0
13:20 36.0 39.5 38.1 1019.4 10.6 SSE 22.3 SSE 0.0
13:25 35.6 38.9 39.0 1019.3 14.3 SSE 27.7 SE 0.0
13:30 35.3 38.5 40.3 1019.2 13.0 SSE 25.0 SSE 0.0
13:35 35.5 38.8 40.3 1019.4 12.4 SSE 25.0 SSE 0.0
13:40 35.5 38.9 40.8 1019.4 12.4 SSE 27.7 SE 0.0
13:45 35.2 38.2 42.1 1019.4 16.3 SSE 27.7 SSE 0.0
13:50 34.6 37.6 44.2 1019.3 14.5 SSE 25.0 SE 0.0
13:55 34.4 37.5 45.0 1019.3 14.8 SSE 30.4 SSE 0.0
14:00 34.5 37.7 45.1 1019.3 15.1 SSE 27.7 SSE 0.0
14:05 34.1 37.0 46.3 1019.4 13.1 SSE 25.0 SSE 0.0
14:10 34.1 37.1 46.6 1019.3 14.6 SSE 25.0 SE 0.0
14:15 34.1 37.2 46.6 1019.5 12.8 SSE 22.3 SE 0.0
14:20 34.2 37.3 46.6 1019.2 11.7 SSE 25.0 ESE 0.0
14:25 34.0 37.0 47.0 1019.4 14.9 SSE 25.0 SSE 0.0
14:30 33.8 36.6 47.5 1019.4 14.2 SSE 27.7 SSE 0.0
14:35 33.6 36.6 47.7 1019.4 13.0 SSE 25.0 ESE 0.0
14:40 33.7 36.6 47.3 1019.3 13.6 SSE 25.0 S 0.0
14:45 33.5 36.2 47.5 1019.4 14.7 SE 27.7 SE 0.0
14:50 33.6 36.1 47.0 1019.3 13.5 SE 25.0 SE 0.0
14:55 33.8 36.4 46.3 1019.3 14.1 SE 25.0 SSE 0.0
15:00 33.6 35.9 46.7 1019.3 12.7 SSE 22.3 SSE 0.0
15:05 33.6 35.9 47.0 1019.2 11.8 SSE 27.7 SSE 0.0
15:10 33.7 36.1 46.7 1019.3 11.6 S 25.0 SSE 0.0
15:15 33.6 35.7 46.5 1019.3 10.1 S 19.6 SSW 0.0
15:20 33.9 36.1 45.6 1019.2 8.5 S 16.9 SE 0.0
15:25 34.1 36.3 44.7 1019.3 9.7 S 19.6 S 0.0
15:30 33.9 36.1 45.1 1019.3 11.5 S 19.6 SE 0.0
15:35 33.9 36.3 43.9 1019.3 8.7 S 19.6 SSE 0.0
15:40 33.8 36.1 43.1 1019.4 12.1 SSE 22.3 S 0.0
15:45 33.7 35.9 42.8 1019.4 8.5 S 16.9 S 0.0
15:50 33.7 35.8 43.0 1019.5 10.5 S 19.6 S 0.0
15:55 33.5 35.6 43.5 1019.4 8.2 SSW 19.6 SSW 0.0
16:00 33.7 35.8 42.9 1019.3 8.1 S 19.6 SSW 0.0
16:05 33.8 35.4 42.5 1019.3 7.6 SSW 16.9 SSW 0.0
16:10 33.7 34.9 41.1 1019.3 11.1 SSE 22.3 SSE 0.0
16:15 33.3 34.5 42.9 1019.5 10.8 SSE 19.6 SE 0.0
16:20 33.1 34.5 43.9 1019.4 6.0 S 16.9 S 0.0
16:25 33.1 34.2 45.3 1019.4 8.3 S 25.0 SW 0.0
16:30 33.1 34.2 45.9 1019.5 8.0 S 14.2 S 0.0
16:35 32.8 33.9 47.0 1019.3 11.0 SSE 16.9 S 0.0
16:40 32.5 33.4 48.5 1019.4 7.7 SSE 16.9 SE 0.0
16:45 32.3 33.2 49.6 1019.4 10.8 SSE 19.6 SSE 0.0
16:50 32.0 33.1 50.9 1019.3 10.1 SE 19.6 SE 0.0
16:55 31.9 32.8 51.7 1019.3 11.1 SE 22.3 ESE 0.0
17:00 31.6 32.6 53.0 1019.3 9.4 SE 19.6 SE 0.0
17:05 31.4 32.2 54.0 1019.4 9.7 SSE 16.9 ESE 0.0
17:10 31.2 32.1 54.6 1019.5 7.8 SE 14.2 SE 0.0
17:15 31.2 31.6 55.0 1019.6 8.2 SSE 16.9 S 0.0
17:20 30.8 30.8 56.3 1019.6 4.9 SSE 14.2 SSE 0.0
17:25 30.5 30.3 57.4 1019.7 4.4 SSE 14.2 SSE 0.0
17:30 30.3 29.9 58.2 1019.7 1.1 SSE 14.2 SSE 0.0
17:35 30.1 29.6 59.1 1019.8 8.3 SSE 16.9 SSE 0.0
17:40 29.9 29.3 59.9 1019.8 6.8 SE 11.5 SSE 0.0
17:45 29.8 29.0 60.8 1019.8 8.5 SE 16.9 SSE 0.0
17:50 29.5 28.8 61.7 1019.8 8.7 SE 19.6 SSE 0.0
17:55 29.3 28.5 62.5 1019.9 7.9 SE 16.9 SE 0.0
18:00 29.2 28.3 63.4 1019.9 5.5 SE 14.2 SE 0.0
18:05 29.0 28.1 64.1 1020.0 6.7 SSE 14.2 SE 0.0
18:10 28.9 27.9 65.0 1020.0 4.2 SE 11.5 ESE 0.0
18:15 28.7 27.7 65.9 1020.1 4.7 SE 11.5 SE 0.0
18:20 28.6 27.5 66.7 1020.1 2.0 ESE 14.2 ESE 0.0
18:25 28.5 27.2 67.2 1020.2 0.0 E 3.4 E 0.0
18:30 28.3 27.0 68.0 1020.3 0.0 NNE 0.0 NE 0.0
18:35 28.1 26.8 68.8 1020.4 0.0 NNE 0.0 ESE 0.0
18:40 27.9 26.7 69.7 1020.4 0.0 NNE 0.0 S 0.0
18:45 27.8 26.5 70.1 1020.5 0.0 NNE 0.0 SSW 0.0
18:50 27.7 26.3 70.6 1020.6 0.0 NNE 0.0 SSE 0.0
18:55 27.6 26.3 70.6 1020.6 0.0 NNE 0.0 SSW 0.0
19:00 27.5 26.2 70.5 1020.7 0.0 NNE 0.0 S 0.0
19:05 27.4 26.1 70.8 1020.7 0.0 NNE 0.0 WSW 0.0
19:10 27.1 25.7 71.8 1020.8 0.0 NNE 0.0 WSW 0.0
19:15 26.8 25.4 72.8 1020.9 0.0 NNE 0.0 N 0.0
19:20 26.6 25.2 73.6 1020.9 0.0 NNE 0.0 NE 0.0
19:25 26.4 25.1 73.4 1021.0 0.0 NNE 0.0 WNW 0.0
19:30 26.4 25.1 72.8 1021.0 0.0 NNE 0.0 W 0.0
19:35 26.3 24.8 73.1 1021.0 0.0 NNE 0.0 WSW 0.0
19:40 26.1 24.6 73.2 1021.0 0.0 NNE 0.0 SE 0.0
19:45 25.9 24.6 72.6 1021.1 0.0 NNE 0.0 SSE 0.0
19:50 25.8 24.4 72.7 1021.1 0.0 NNE 0.0 WSW 0.0
19:55 25.6 24.1 73.7 1021.1 0.0 NNE 0.0 WNW 0.0
20:00 25.4 23.9 74.2 1021.1 0.0 NNE 0.0 WNW 0.0
20:05 25.2 23.7 74.9 1021.1 0.0 NNE 0.0 WNW 0.0
20:10 25.1 23.5 75.5 1021.2 0.0 NNE 0.0 WNW 0.0
20:15 24.9 23.4 76.0 1021.2 0.0 NNE 0.0 E 0.0
20:20 24.7 23.2 76.4 1021.2 0.0 NNE 0.0 E 0.0
20:25 24.6 23.1 76.7 1021.3 0.0 NNE 0.0 E 0.0
20:30 24.4 22.9 77.0 1021.2 0.0 NNE 0.0 E 0.0
20:35 24.3 22.8 76.8 1021.2 0.0 NNE 0.0 E 0.0
20:40 24.1 22.6 76.9 1021.2 0.0 NNE 0.0 E 0.0
20:45 24.0 22.5 77.4 1021.2 0.0 NNE 0.0 E 0.0
20:50 23.9 22.4 77.7 1021.2 0.0 NNE 0.0 ENE 0.0
20:55 23.8 22.3 77.9 1021.3 0.0 NNE 0.0 ENE 0.0
21:00 23.7 22.1 78.2 1021.3 0.0 NNE 0.0 ENE 0.0
Màxima 36.6 40.1 91.0 1022.5 16.3 SSE 30.4 SSE 0.0
Mínima 18.1 16.7 32.3 1019.2
Total 0.0